createdAt,value
2023-05-05T00:00:25.135Z,523.5714
2023-05-05T00:01:33.511Z,523.3571
2023-05-05T00:02:41.534Z,528.9286
2023-05-05T00:03:49.629Z,528.5000
2023-05-05T00:04:57.613Z,528.7143
2023-05-05T00:06:05.649Z,524.2143
2023-05-05T00:07:13.661Z,525.2857
2023-05-05T00:08:21.754Z,523.1429
2023-05-05T00:09:29.757Z,522.7143
2023-05-05T00:10:37.860Z,527.8571
2023-05-05T00:11:45.892Z,527.7143
2023-05-05T00:12:53.851Z,522.7857
2023-05-05T00:14:01.885Z,518.1429
2023-05-05T00:15:09.916Z,515.2143
2023-05-05T00:16:18.103Z,515.3571
2023-05-05T00:17:26.299Z,512.9286
2023-05-05T00:18:34.252Z,510.0714
2023-05-05T00:19:42.343Z,508.0000
2023-05-05T00:20:50.368Z,504.8571
2023-05-05T00:21:58.400Z,505.4286
2023-05-05T00:23:06.472Z,506.5000
2023-05-05T00:24:14.711Z,509.3571
2023-05-05T00:25:22.644Z,508.2143
2023-05-05T00:26:30.606Z,509.6429
2023-05-05T00:27:40.236Z,511.8571
2023-05-05T00:28:51.488Z,510.6667
2023-05-05T00:29:59.832Z,520.6429
2023-05-05T00:31:07.865Z,515.5000
2023-05-05T00:32:15.824Z,516.6429
2023-05-05T00:33:23.919Z,519.2143
2023-05-05T00:34:31.955Z,516.0714
2023-05-05T00:35:39.976Z,515.1429
2023-05-05T00:36:48.061Z,516.0000
2023-05-05T00:37:56.157Z,513.9286
2023-05-05T00:39:04.234Z,513.2857
2023-05-05T00:40:12.246Z,515.1429
2023-05-05T00:41:20.171Z,510.7143
2023-05-05T00:42:28.217Z,514.3571
2023-05-05T00:43:36.273Z,511.2143
2023-05-05T00:44:44.715Z,508.5000
2023-05-05T00:45:52.520Z,508.0714
2023-05-05T00:47:00.770Z,510.0714
2023-05-05T00:48:08.796Z,509.5714
2023-05-05T00:49:16.851Z,511.0714
2023-05-05T00:50:24.773Z,511.9286
2023-05-05T00:51:32.852Z,510.1429
2023-05-05T00:52:40.996Z,510.8571
2023-05-05T00:53:48.990Z,508.7857
2023-05-05T00:54:57.053Z,517.0000
2023-05-05T00:56:04.960Z,510.5714
2023-05-05T00:57:13.029Z,513.2143
2023-05-05T00:58:21.100Z,514.2143
2023-05-05T00:59:29.305Z,516.9286
2023-05-05T01:00:37.334Z,519.0714
2023-05-05T01:01:45.399Z,522.7857
2023-05-05T01:02:53.588Z,527.0714
2023-05-05T01:04:01.742Z,524.8571
2023-05-05T01:05:09.585Z,527.0714
2023-05-05T01:06:17.677Z,522.5000
2023-05-05T01:07:25.695Z,521.5000
2023-05-05T01:08:33.779Z,524.6429
2023-05-05T01:09:41.869Z,521.1429
2023-05-05T01:10:49.756Z,517.6429
2023-05-05T01:11:57.813Z,514.7143
2023-05-05T01:13:05.961Z,514.0000
2023-05-05T01:14:14.087Z,509.9286
2023-05-05T01:15:22.139Z,509.1429
2023-05-05T01:16:30.199Z,504.9286
2023-05-05T01:17:38.309Z,506.6429
2023-05-05T01:18:46.319Z,504.3571
2023-05-05T01:19:54.611Z,503.5714
2023-05-05T01:21:02.508Z,503.6429
2023-05-05T01:22:10.631Z,504.3571
2023-05-05T01:23:18.628Z,501.7143
2023-05-05T01:24:26.771Z,502.2143
2023-05-05T01:25:34.618Z,501.2143
2023-05-05T01:26:42.680Z,502.2857
2023-05-05T01:27:50.721Z,499.5000
2023-05-05T01:28:58.945Z,496.7857
2023-05-05T01:30:07.304Z,498.9286
2023-05-05T01:31:15.080Z,499.1429
2023-05-05T01:32:23.114Z,500.0714
2023-05-05T01:33:31.151Z,499.7143
2023-05-05T01:34:39.207Z,499.5714
2023-05-05T01:35:47.474Z,502.3571
2023-05-05T01:36:55.337Z,501.2857
2023-05-05T01:38:03.402Z,502.7143
2023-05-05T01:39:11.466Z,498.3571
2023-05-05T01:40:19.447Z,500.0714
2023-05-05T01:41:27.416Z,498.5714
2023-05-05T01:42:35.538Z,499.4286
2023-05-05T01:43:43.754Z,498.2857
2023-05-05T01:44:51.792Z,499.5000
2023-05-05T01:45:59.873Z,498.8571
2023-05-05T01:47:07.923Z,498.3571
2023-05-05T01:48:15.939Z,502.0000
2023-05-05T01:49:23.990Z,504.9286
2023-05-05T01:50:32.086Z,501.5714
2023-05-05T01:51:40.117Z,500.5000
2023-05-05T01:52:48.290Z,504.5714
2023-05-05T01:53:56.323Z,502.9286
2023-05-05T01:55:04.168Z,501.5714
2023-05-05T01:56:12.206Z,501.2857
2023-05-05T01:57:20.276Z,499.3571
2023-05-05T01:58:28.472Z,499.2857
2023-05-05T01:59:36.504Z,497.8571
2023-05-05T02:00:44.794Z,497.2143
2023-05-05T02:01:52.644Z,490.0714
2023-05-05T02:03:00.725Z,492.0000
2023-05-05T02:04:08.737Z,487.8571
2023-05-05T02:05:16.948Z,486.5714
2023-05-05T02:06:24.887Z,484.5714
2023-05-05T02:07:32.928Z,485.0714
2023-05-05T02:08:41.232Z,483.7857
2023-05-05T02:09:48.970Z,485.2857
2023-05-05T02:10:57.018Z,483.2143
2023-05-05T02:12:05.103Z,483.3571
2023-05-05T02:13:13.384Z,481.5000
2023-05-05T02:14:21.304Z,479.0000
2023-05-05T02:15:29.426Z,476.0714
2023-05-05T02:16:37.637Z,475.0714
2023-05-05T02:17:45.551Z,477.7143
2023-05-05T02:18:53.562Z,473.0000
2023-05-05T02:20:01.714Z,471.2857
2023-05-05T02:21:09.695Z,468.9286
2023-05-05T02:22:17.720Z,469.8571
2023-05-05T02:23:25.892Z,472.5714
2023-05-05T02:24:33.728Z,468.2857
2023-05-05T02:25:41.806Z,466.3571
2023-05-05T02:26:49.846Z,464.2857
2023-05-05T02:27:58.055Z,461.3571
2023-05-05T02:29:06.070Z,463.5000
2023-05-05T02:30:14.207Z,462.2857
2023-05-05T02:31:22.209Z,467.0000
2023-05-05T02:32:30.464Z,463.0000
2023-05-05T02:33:38.320Z,466.2143
2023-05-05T02:34:46.374Z,465.2143
2023-05-05T02:35:54.480Z,469.0000
2023-05-05T02:37:02.484Z,464.9286
2023-05-05T02:38:10.639Z,467.5714
2023-05-05T02:39:18.484Z,467.1429
2023-05-05T02:40:26.563Z,465.7143
2023-05-05T02:41:34.642Z,466.7857
2023-05-05T02:42:42.709Z,466.0000
2023-05-05T02:43:50.752Z,467.7857
2023-05-05T02:44:58.958Z,463.5714
2023-05-05T02:46:07.058Z,466.8571
2023-05-05T02:47:15.040Z,468.1429
2023-05-05T02:48:23.138Z,467.0000
2023-05-05T02:49:31.294Z,468.5714
2023-05-05T02:50:39.299Z,469.2143
2023-05-05T02:51:47.315Z,469.8571
2023-05-05T02:52:55.364Z,469.2143
2023-05-05T02:54:03.366Z,471.9286
2023-05-05T02:55:11.594Z,470.7143
2023-05-05T02:56:19.452Z,472.1429
2023-05-05T02:57:27.444Z,473.5000
2023-05-05T02:58:35.547Z,470.6429
2023-05-05T02:59:43.756Z,472.3571
2023-05-05T03:00:51.827Z,473.9286
2023-05-05T03:01:59.909Z,474.7857
2023-05-05T03:03:07.918Z,476.9286
2023-05-05T03:04:15.950Z,478.0714
2023-05-05T03:05:23.995Z,475.0714
2023-05-05T03:06:32.121Z,476.5000
2023-05-05T03:07:40.148Z,474.5000
2023-05-05T03:08:48.188Z,473.0714
2023-05-05T03:09:56.272Z,473.2857
2023-05-05T03:11:04.258Z,473.1429
2023-05-05T03:12:12.261Z,473.0714
2023-05-05T03:13:20.356Z,476.1429
2023-05-05T03:14:29.583Z,476.5000
2023-05-05T03:15:41.510Z,478.2000
2023-05-05T03:16:49.560Z,477.2857
2023-05-05T03:17:57.670Z,478.0714
2023-05-05T03:19:05.662Z,479.0000
2023-05-05T03:20:13.703Z,476.4286
2023-05-05T03:21:21.921Z,479.3571
2023-05-05T03:22:29.848Z,479.2143
2023-05-05T03:23:37.843Z,477.1429
2023-05-05T03:24:45.776Z,478.9286
2023-05-05T03:25:53.873Z,479.2857
2023-05-05T03:27:01.964Z,479.6429
2023-05-05T03:28:10.112Z,481.9286
2023-05-05T03:29:18.198Z,482.2143
2023-05-05T03:30:26.285Z,481.7143
2023-05-05T03:31:34.362Z,480.5714
2023-05-05T03:32:42.358Z,480.2143
2023-05-05T03:33:50.438Z,479.4286
2023-05-05T03:34:58.636Z,475.0000
2023-05-05T03:36:06.544Z,469.6429
2023-05-05T03:37:14.800Z,470.6429
2023-05-05T03:38:22.627Z,479.0714
2023-05-05T03:39:30.576Z,478.7857
2023-05-05T03:40:44.127Z,478.2143
2023-05-05T03:41:51.764Z,480.2000
2023-05-05T03:42:59.793Z,479.7143
2023-05-05T03:44:07.855Z,479.4286
2023-05-05T03:45:16.049Z,479.3571
2023-05-05T03:46:23.969Z,483.7857
2023-05-05T03:47:32.005Z,483.5714
2023-05-05T03:48:40.042Z,484.0714
2023-05-05T03:49:48.126Z,489.0000
2023-05-05T03:50:56.154Z,491.0000
2023-05-05T03:52:04.248Z,494.8571
2023-05-05T03:53:12.165Z,498.4286
2023-05-05T03:54:20.206Z,500.2143
2023-05-05T03:55:28.270Z,499.6429
2023-05-05T03:56:36.513Z,503.1429
2023-05-05T03:57:44.526Z,503.0000
2023-05-05T03:58:52.579Z,502.8571
2023-05-05T04:00:00.648Z,506.3571
2023-05-05T04:01:08.697Z,508.9286
2023-05-05T04:02:18.630Z,502.6429
2023-05-05T04:03:29.707Z,500.3333
2023-05-05T04:04:37.697Z,498.2857
2023-05-05T04:05:45.761Z,498.9286
2023-05-05T04:06:53.788Z,496.2143
2023-05-05T04:08:01.794Z,493.7143
2023-05-05T04:09:09.818Z,485.7143
2023-05-05T04:10:18.040Z,481.0714
2023-05-05T04:11:26.141Z,474.2857
2023-05-05T04:12:34.225Z,470.0714
2023-05-05T04:13:42.452Z,468.6429
2023-05-05T04:14:50.314Z,473.6429
2023-05-05T04:15:58.467Z,476.0000
2023-05-05T04:17:06.374Z,476.3571
2023-05-05T04:18:14.465Z,478.4286
2023-05-05T04:19:22.539Z,478.3571
2023-05-05T04:20:30.528Z,478.1429
2023-05-05T04:21:38.564Z,481.7143
2023-05-05T04:22:46.602Z,482.3571
2023-05-05T04:23:54.620Z,482.1429
2023-05-05T04:25:02.768Z,478.6429
2023-05-05T04:26:10.856Z,482.2857
2023-05-05T04:27:18.931Z,486.0000
2023-05-05T04:28:27.064Z,485.2143
2023-05-05T04:29:35.104Z,489.1429
2023-05-05T04:30:43.131Z,491.5714
2023-05-05T04:31:51.249Z,491.6429
2023-05-05T04:32:59.321Z,495.2857
2023-05-05T04:34:07.385Z,496.1429
2023-05-05T04:35:15.341Z,499.0000
2023-05-05T04:36:23.288Z,499.7143
2023-05-05T04:37:31.386Z,498.5714
2023-05-05T04:38:39.407Z,495.3571
2023-05-05T04:39:47.528Z,493.5714
2023-05-05T04:40:55.621Z,501.4286
2023-05-05T04:42:03.683Z,508.4286
2023-05-05T04:43:11.811Z,512.1429
2023-05-05T04:44:19.794Z,513.4286
2023-05-05T04:45:27.825Z,515.5000
2023-05-05T04:46:35.918Z,512.2857
2023-05-05T04:47:44.131Z,511.0000
2023-05-05T04:48:52.123Z,506.5714
2023-05-05T04:50:00.125Z,510.9286
2023-05-05T04:51:08.077Z,514.1429
2023-05-05T04:52:16.140Z,513.1429
2023-05-05T04:53:24.212Z,516.4286
2023-05-05T04:54:32.337Z,529.5000
2023-05-05T04:55:40.357Z,538.9286
2023-05-05T04:56:48.403Z,543.5000
2023-05-05T04:57:56.558Z,547.5714
2023-05-05T04:59:04.548Z,540.0714
2023-05-05T05:00:12.576Z,537.7143
2023-05-05T05:01:20.664Z,537.7857
2023-05-05T05:02:28.774Z,533.5714
2023-05-05T05:03:36.864Z,523.6429
2023-05-05T05:04:44.865Z,513.5000
2023-05-05T05:05:52.967Z,504.0714
2023-05-05T05:07:00.855Z,495.7143
2023-05-05T05:08:08.974Z,489.7857
2023-05-05T05:09:17.157Z,491.0000
2023-05-05T05:10:25.186Z,491.2857
2023-05-05T05:11:33.237Z,501.5714
2023-05-05T05:12:41.288Z,503.0714
2023-05-05T05:13:49.386Z,503.5000
2023-05-05T05:14:57.512Z,499.1429
2023-05-05T05:16:05.582Z,500.1429
2023-05-05T05:17:13.456Z,505.0000
2023-05-05T05:18:21.596Z,512.0000
2023-05-05T05:19:29.693Z,514.8571
2023-05-05T05:20:37.546Z,510.1429
2023-05-05T05:21:45.628Z,507.5000
2023-05-05T05:22:53.711Z,510.7857
2023-05-05T05:24:01.789Z,510.7857
2023-05-05T05:25:09.913Z,504.1429
2023-05-05T05:26:17.974Z,507.0714
2023-05-05T05:27:26.010Z,505.0714
2023-05-05T05:28:34.209Z,508.0714
2023-05-05T05:29:42.187Z,512.8571
2023-05-05T05:30:50.249Z,513.7143
2023-05-05T05:31:58.392Z,517.6429
2023-05-05T05:33:06.437Z,514.7143
2023-05-05T05:34:14.463Z,514.2857
2023-05-05T05:35:22.405Z,512.5714
2023-05-05T05:36:30.472Z,515.8571
2023-05-05T05:37:38.573Z,514.1429
2023-05-05T05:38:46.605Z,516.9286
2023-05-05T05:39:54.710Z,518.9286
2023-05-05T05:41:02.854Z,519.4286
2023-05-05T05:42:10.841Z,521.8571
2023-05-05T05:43:18.983Z,520.5714
2023-05-05T05:44:27.001Z,526.5000
2023-05-05T05:45:35.228Z,527.4286
2023-05-05T05:46:43.151Z,531.2143
2023-05-05T05:47:51.363Z,534.3571
2023-05-05T05:48:59.327Z,538.3571
2023-05-05T05:50:07.438Z,543.1429
2023-05-05T05:51:15.222Z,538.0714
2023-05-05T05:52:23.265Z,535.4286
2023-05-05T05:53:31.517Z,538.2857
2023-05-05T05:54:39.380Z,531.7143
2023-05-05T05:55:47.719Z,532.5714
2023-05-05T05:56:55.580Z,529.5000
2023-05-05T05:58:03.720Z,523.5714
2023-05-05T05:59:11.786Z,521.5714
2023-05-05T06:00:19.763Z,523.0714
2023-05-05T06:01:27.840Z,520.7857
2023-05-05T06:02:35.934Z,517.8571
2023-05-05T06:03:44.046Z,514.9286
2023-05-05T06:04:51.927Z,516.2143
2023-05-05T06:05:59.976Z,513.2143
2023-05-05T06:07:08.006Z,517.9286
2023-05-05T06:08:16.171Z,516.2143
2023-05-05T06:09:24.330Z,516.6429
2023-05-05T06:10:32.524Z,522.5714
2023-05-05T06:11:45.258Z,521.2000
2023-05-05T06:12:53.652Z,524.0714
2023-05-05T06:14:01.414Z,524.9286
2023-05-05T06:15:09.397Z,523.8571
2023-05-05T06:16:17.538Z,524.2143
2023-05-05T06:17:25.497Z,527.3571
2023-05-05T06:18:33.547Z,532.6429
2023-05-05T06:19:41.535Z,539.3571
2023-05-05T06:20:49.609Z,549.4286
2023-05-05T06:21:57.908Z,546.7857
2023-05-05T06:23:05.872Z,547.0714
2023-05-05T06:24:13.912Z,545.2143
2023-05-05T06:25:21.981Z,545.2143
2023-05-05T06:26:30.003Z,541.6429
2023-05-05T06:27:38.022Z,537.5714
2023-05-05T06:28:46.112Z,540.8571
2023-05-05T06:29:54.250Z,543.1429
2023-05-05T06:31:02.303Z,544.9286
2023-05-05T06:32:10.286Z,549.7143
2023-05-05T06:33:18.244Z,548.4286
2023-05-05T06:34:26.295Z,541.0714
2023-05-05T06:35:34.388Z,537.6429
2023-05-05T06:36:42.466Z,534.7857
2023-05-05T06:37:50.607Z,527.6429
2023-05-05T06:38:58.618Z,535.5000
2023-05-05T06:40:06.861Z,537.6429
2023-05-05T06:41:14.826Z,536.9286
2023-05-05T06:42:22.827Z,533.3571
2023-05-05T06:43:30.938Z,533.7143
2023-05-05T06:44:38.906Z,529.7857
2023-05-05T06:45:47.212Z,532.0714
2023-05-05T06:46:55.088Z,525.3571
2023-05-05T06:48:03.059Z,524.7143
2023-05-05T06:49:11.050Z,523.0000
2023-05-05T06:50:19.103Z,521.0000
2023-05-05T06:51:27.364Z,517.7857
2023-05-05T06:52:35.412Z,520.5000
2023-05-05T06:53:43.405Z,523.6429
2023-05-05T06:54:51.507Z,524.0000
2023-05-05T06:55:59.518Z,523.7857
2023-05-05T06:57:07.565Z,527.0714
2023-05-05T06:58:15.614Z,528.2143
2023-05-05T06:59:23.681Z,529.2143
2023-05-05T07:00:31.736Z,531.9286
2023-05-05T07:01:39.880Z,533.6429
2023-05-05T07:02:47.771Z,545.6429
2023-05-05T07:03:55.877Z,569.6429
2023-05-05T07:05:03.896Z,579.6429
2023-05-05T07:06:12.009Z,568.9286
2023-05-05T07:07:20.147Z,564.1429
2023-05-05T07:08:28.190Z,554.7857
2023-05-05T07:09:36.304Z,554.1429
2023-05-05T07:10:44.296Z,562.5000
2023-05-05T07:11:52.397Z,555.1429
2023-05-05T07:13:00.444Z,548.3571
2023-05-05T07:14:08.438Z,549.8571
2023-05-05T07:15:27.614Z,555.8571
2023-05-05T07:16:29.372Z,551.3333
2023-05-05T07:17:37.383Z,546.2143
2023-05-05T07:18:45.432Z,541.6429
2023-05-05T07:19:53.753Z,538.3571
2023-05-05T07:21:01.630Z,539.5714
2023-05-05T07:22:09.637Z,540.7857
2023-05-05T07:23:17.849Z,544.2143
2023-05-05T07:24:25.803Z,543.1429
2023-05-05T07:25:33.948Z,535.7143
2023-05-05T07:26:42.004Z,528.6429
2023-05-05T07:27:50.063Z,529.2143
2023-05-05T07:28:58.082Z,533.2857
2023-05-05T07:30:10.057Z,534.3571
2023-05-05T07:31:18.927Z,535.7333
2023-05-05T07:32:27.096Z,530.6429
2023-05-05T07:33:35.074Z,529.5714
2023-05-05T07:34:43.271Z,528.7857
2023-05-05T07:35:51.399Z,528.5000
2023-05-05T07:36:59.410Z,528.5714
2023-05-05T07:38:08.719Z,532.6429
2023-05-05T07:39:20.332Z,532.8000
2023-05-05T07:40:28.371Z,531.3571
2023-05-05T07:41:36.462Z,533.8571
2023-05-05T07:42:44.626Z,546.3571
2023-05-05T07:43:52.677Z,552.5000
2023-05-05T07:45:00.470Z,542.5714
2023-05-05T07:46:08.548Z,538.5000
2023-05-05T07:47:16.629Z,543.0714
2023-05-05T07:48:24.769Z,547.4286
2023-05-05T07:49:32.874Z,549.5714
2023-05-05T07:50:40.905Z,552.0714
2023-05-05T07:51:49.127Z,559.4286
2023-05-05T07:53:06.250Z,556.3571
2023-05-05T07:54:09.916Z,553.0000
2023-05-05T07:55:18.018Z,550.8571
2023-05-05T07:56:26.068Z,548.6429
2023-05-05T07:57:34.239Z,544.2857
2023-05-05T07:58:42.035Z,538.3571
2023-05-05T07:59:50.067Z,541.5000
2023-05-05T08:00:58.141Z,545.3571
2023-05-05T08:02:06.345Z,541.8571
2023-05-05T08:03:14.441Z,538.2143
2023-05-05T08:04:22.428Z,543.7857
2023-05-05T08:05:30.502Z,544.6429
2023-05-05T08:06:38.506Z,544.9286
2023-05-05T08:07:46.800Z,551.4286
2023-05-05T08:08:54.665Z,556.2143
2023-05-05T08:10:02.718Z,564.1429
2023-05-05T08:11:10.834Z,564.6429
2023-05-05T08:12:18.868Z,556.2857
2023-05-05T08:13:26.809Z,554.7857
2023-05-05T08:14:34.840Z,555.0714
2023-05-05T08:15:42.910Z,556.5000
2023-05-05T08:16:51.064Z,566.6429
2023-05-05T08:17:59.190Z,569.5714
2023-05-05T08:19:17.670Z,571.7857
2023-05-05T08:20:20.182Z,577.4667
2023-05-05T08:21:28.164Z,582.8571
2023-05-05T08:22:36.282Z,594.1429
2023-05-05T08:23:44.300Z,608.5000
2023-05-05T08:24:52.634Z,624.5714
2023-05-05T08:26:00.285Z,635.1429
2023-05-05T08:27:08.339Z,648.4286
2023-05-05T08:28:16.440Z,664.0714
2023-05-05T08:29:24.641Z,667.1429
2023-05-05T08:30:32.927Z,668.2857
2023-05-05T08:31:40.751Z,668.4286
2023-05-05T08:32:48.910Z,668.0714
2023-05-05T08:33:56.958Z,664.9286
2023-05-05T08:35:04.927Z,660.7143
2023-05-05T08:36:12.932Z,654.9286
2023-05-05T08:37:21.071Z,649.6429
2023-05-05T08:38:29.066Z,644.0000
2023-05-05T08:39:37.168Z,639.5000
2023-05-05T08:40:45.049Z,643.0000
2023-05-05T08:41:53.152Z,636.3571
2023-05-05T08:43:01.203Z,627.9286
2023-05-05T08:44:09.479Z,637.7857
2023-05-05T08:45:17.543Z,648.8571
2023-05-05T08:46:25.482Z,645.6429
2023-05-05T08:47:33.555Z,646.6429
2023-05-05T08:48:41.741Z,652.5000
2023-05-05T08:49:49.715Z,661.1429
2023-05-05T08:50:59.542Z,661.2857
2023-05-05T08:52:10.647Z,661.5333
2023-05-05T08:53:18.668Z,658.6429
2023-05-05T08:54:26.637Z,659.2143
2023-05-05T08:55:34.690Z,663.0000
2023-05-05T08:56:42.751Z,666.4286
2023-05-05T08:57:51.110Z,663.6429
2023-05-05T08:58:58.965Z,659.0714
2023-05-05T09:00:07.008Z,662.2857
2023-05-05T09:01:15.159Z,666.0000
2023-05-05T09:02:23.209Z,671.8571
2023-05-05T09:03:31.190Z,672.7857
2023-05-05T09:04:39.282Z,669.0000
2023-05-05T09:05:47.277Z,663.2857
2023-05-05T09:06:55.308Z,666.5000
2023-05-05T09:08:03.584Z,664.2143
2023-05-05T09:09:11.406Z,668.4286
2023-05-05T09:10:19.452Z,669.7857
2023-05-05T09:11:27.531Z,668.0000
2023-05-05T09:12:35.664Z,668.5714
2023-05-05T09:13:43.892Z,672.1429
2023-05-05T09:14:51.770Z,674.0000
2023-05-05T09:15:59.894Z,672.7143
2023-05-05T09:17:07.981Z,668.9286
2023-05-05T09:18:15.956Z,675.2143
2023-05-05T09:19:23.974Z,670.1429
2023-05-05T09:20:32.234Z,666.5000
2023-05-05T09:21:40.117Z,663.5000
2023-05-05T09:22:48.174Z,666.9286
2023-05-05T09:23:58.535Z,664.4286
2023-05-05T09:25:09.251Z,666.6667
2023-05-05T09:26:17.214Z,670.6429
2023-05-05T09:27:25.264Z,675.5714
2023-05-05T09:28:33.264Z,670.5714
2023-05-05T09:29:41.493Z,672.0714
2023-05-05T09:30:49.493Z,670.4286
2023-05-05T09:31:57.533Z,671.8571
2023-05-05T09:33:05.667Z,668.1429
2023-05-05T09:34:13.630Z,668.3571
2023-05-05T09:35:21.727Z,668.0714
2023-05-05T09:36:29.700Z,669.4286
2023-05-05T09:37:37.736Z,671.3571
2023-05-05T09:38:45.819Z,671.5000
2023-05-05T09:39:53.929Z,668.5000
2023-05-05T09:41:02.136Z,667.2143
2023-05-05T09:42:10.095Z,668.1429
2023-05-05T09:43:18.163Z,671.3571
2023-05-05T09:44:26.358Z,667.6429
2023-05-05T09:45:34.286Z,669.1429
2023-05-05T09:46:42.515Z,672.0714
2023-05-05T09:47:50.652Z,671.8571
2023-05-05T09:48:58.503Z,664.1429
2023-05-05T09:50:06.696Z,659.5000
2023-05-05T09:51:14.449Z,657.7143
2023-05-05T09:52:22.546Z,660.3571
2023-05-05T09:53:30.556Z,667.5714
2023-05-05T09:54:38.790Z,670.7857
2023-05-05T09:55:46.832Z,679.1429
2023-05-05T09:56:54.827Z,686.9286
2023-05-05T09:58:02.985Z,689.4286
2023-05-05T09:59:11.098Z,693.2857
2023-05-05T10:00:18.923Z,697.9286
2023-05-05T10:01:27.162Z,709.9286
2023-05-05T10:02:35.146Z,745.1429
2023-05-05T10:03:43.265Z,774.7857
2023-05-05T10:04:51.259Z,791.4286
2023-05-05T10:05:59.208Z,801.4286
2023-05-05T10:07:07.263Z,831.7143
2023-05-05T10:08:15.342Z,846.2857
2023-05-05T10:09:23.503Z,895.4286
2023-05-05T10:10:31.610Z,966.1429
2023-05-05T10:11:39.552Z,1033.7142
2023-05-05T10:12:47.782Z,1100.1428
2023-05-05T10:13:55.773Z,1140.4286
2023-05-05T10:15:03.809Z,1145.7858
2023-05-05T10:16:12.022Z,1163.1428
2023-05-05T10:17:19.888Z,1196.8572
2023-05-05T10:18:27.967Z,1182.7858
2023-05-05T10:19:36.006Z,1179.4286
2023-05-05T10:20:44.024Z,1192.4286
2023-05-05T10:21:52.080Z,1217.2858
2023-05-05T10:23:00.148Z,1261.1428
2023-05-05T10:24:08.245Z,1283.0714
2023-05-05T10:25:16.308Z,1313.2142
2023-05-05T10:26:24.466Z,1338.4286
2023-05-05T10:27:32.524Z,1382.1428
2023-05-05T10:28:40.540Z,1383.5714
2023-05-05T10:29:48.633Z,1356.1428
2023-05-05T10:30:56.704Z,1363.4286
2023-05-05T10:32:21.456Z,1362.8572
2023-05-05T10:33:30.213Z,1376.0000
2023-05-05T10:34:30.491Z,1371.4667
2023-05-05T10:35:38.660Z,1366.8572
2023-05-05T10:36:46.787Z,1361.2858
2023-05-05T10:37:54.826Z,1364.2858
2023-05-05T10:39:02.826Z,1359.2858
2023-05-05T10:40:11.241Z,1329.2858
2023-05-05T10:41:18.979Z,1320.1428
2023-05-05T10:42:27.082Z,1331.4286
2023-05-05T10:43:35.116Z,1342.0000
2023-05-05T10:44:43.116Z,1311.6428
2023-05-05T10:45:51.243Z,1339.0000
2023-05-05T10:46:59.172Z,1373.7142
2023-05-05T10:48:07.247Z,1396.4286
2023-05-05T10:49:15.277Z,1469.5000
2023-05-05T10:50:23.390Z,1514.5714
2023-05-05T10:51:40.094Z,1545.2858
2023-05-05T10:52:44.517Z,1598.4000
2023-05-05T10:53:52.522Z,1636.2858
2023-05-05T10:55:00.509Z,1684.6428
2023-05-05T10:56:08.722Z,1720.5714
2023-05-05T10:57:16.735Z,1753.4286
2023-05-05T10:58:24.723Z,1832.3572
2023-05-05T10:59:32.845Z,1872.7858
2023-05-05T11:00:40.814Z,1911.2858
2023-05-05T11:01:48.838Z,1914.2858
2023-05-05T11:02:56.999Z,1929.8572
2023-05-05T11:04:05.105Z,1931.5000
2023-05-05T11:05:13.102Z,1910.4286
2023-05-05T11:06:21.119Z,1926.5714
2023-05-05T11:07:29.309Z,1897.0000
2023-05-05T11:08:37.557Z,1909.7142
2023-05-05T11:09:45.440Z,1901.8572
2023-05-05T11:10:53.494Z,1841.6428
2023-05-05T11:12:01.596Z,1767.5714
2023-05-05T11:13:09.590Z,1706.6428
2023-05-05T11:14:17.640Z,1672.3572
2023-05-05T11:15:25.633Z,1646.5714
2023-05-05T11:16:33.726Z,1578.1428
2023-05-05T11:17:41.832Z,1525.5000
2023-05-05T11:18:49.968Z,1447.8572
2023-05-05T11:19:57.984Z,1391.2858
2023-05-05T11:21:06.003Z,1368.8572
2023-05-05T11:22:14.106Z,1363.0000
2023-05-05T11:23:22.216Z,1321.3572
2023-05-05T11:24:30.274Z,1287.7142
2023-05-05T11:25:38.404Z,1269.2858
2023-05-05T11:26:46.361Z,1268.5714
2023-05-05T11:27:54.444Z,1245.2858
2023-05-05T11:29:02.501Z,1208.1428
2023-05-05T11:30:10.705Z,1199.9286
2023-05-05T11:31:18.605Z,1186.8572
2023-05-05T11:32:26.633Z,1152.3572
2023-05-05T11:33:34.785Z,1124.2858
2023-05-05T11:34:42.772Z,1099.5714
2023-05-05T11:35:50.847Z,1107.0000
2023-05-05T11:36:58.948Z,1113.0000
2023-05-05T11:38:07.036Z,1066.4286
2023-05-05T11:39:15.049Z,1020.9286
2023-05-05T11:40:23.129Z,1039.5714
2023-05-05T11:41:31.230Z,1059.2858
2023-05-05T11:42:39.290Z,1099.8572
2023-05-05T11:43:47.274Z,1122.0000
2023-05-05T11:44:55.301Z,1119.0000
2023-05-05T11:46:03.396Z,1099.7142
2023-05-05T11:47:11.408Z,1078.1428
2023-05-05T11:48:19.770Z,1047.2858
2023-05-05T11:49:27.691Z,1076.7142
2023-05-05T11:50:35.855Z,1107.7142
2023-05-05T11:51:43.787Z,1166.7142
2023-05-05T11:52:51.848Z,1228.7142
2023-05-05T11:53:59.904Z,1278.4286
2023-05-05T11:55:07.972Z,1340.6428
2023-05-05T11:56:16.102Z,1363.4286
2023-05-05T11:57:24.245Z,1404.9286
2023-05-05T11:58:32.205Z,1410.1428
2023-05-05T11:59:40.086Z,1442.3572
2023-05-05T12:00:48.147Z,1421.2858
2023-05-05T12:01:56.213Z,1381.1428
2023-05-05T12:03:04.522Z,1348.7142
2023-05-05T12:04:12.861Z,1330.1428
2023-05-05T12:05:20.546Z,1298.4286
2023-05-05T12:06:28.610Z,1256.6428
2023-05-05T12:07:36.631Z,1240.1428
2023-05-05T12:08:44.777Z,1235.7142
2023-05-05T12:09:52.791Z,1232.1428
2023-05-05T12:11:01.009Z,1247.7142
2023-05-05T12:12:08.974Z,1314.2858
2023-05-05T12:13:17.131Z,1383.4286
2023-05-05T12:14:24.980Z,1404.2858
2023-05-05T12:15:32.996Z,1447.4286
2023-05-05T12:16:41.271Z,1480.7142
2023-05-05T12:17:49.280Z,1521.0000
2023-05-05T12:18:57.408Z,1551.6428
2023-05-05T12:20:05.592Z,1637.7142
2023-05-05T12:21:13.482Z,1644.7142
2023-05-05T12:22:21.539Z,1661.2858
2023-05-05T12:23:29.641Z,1652.0000
2023-05-05T12:24:37.624Z,1656.2858
2023-05-05T12:25:45.721Z,1662.8572
2023-05-05T12:26:53.826Z,1653.7142
2023-05-05T12:28:02.036Z,1636.7142
2023-05-05T12:29:09.844Z,1650.0000
2023-05-05T12:30:17.929Z,1679.6428
2023-05-05T12:31:25.953Z,1703.1428
2023-05-05T12:32:34.259Z,1745.0000
2023-05-05T12:33:42.240Z,1789.2142
2023-05-05T12:34:50.308Z,1854.6428
2023-05-05T12:35:58.480Z,1894.0000
2023-05-05T12:37:06.362Z,1953.6428
2023-05-05T12:38:14.466Z,1986.0714
2023-05-05T12:39:22.565Z,2006.7858
2023-05-05T12:40:30.601Z,1997.0714
2023-05-05T12:41:38.668Z,2009.5714
2023-05-05T12:42:46.763Z,2063.7144
2023-05-05T12:43:54.756Z,2088.0715
2023-05-05T12:45:02.751Z,2132.2144
2023-05-05T12:46:10.928Z,2215.3572
2023-05-05T12:47:19.004Z,2250.5000
2023-05-05T12:48:27.111Z,2294.7144
2023-05-05T12:49:35.064Z,2331.0000
2023-05-05T12:50:43.251Z,2341.6428
2023-05-05T12:51:51.241Z,2381.4285
2023-05-05T12:52:59.358Z,2441.8572
2023-05-05T12:54:07.446Z,2481.7856
2023-05-05T12:55:15.567Z,2506.9285
2023-05-05T12:56:23.559Z,2547.9285
2023-05-05T12:57:31.562Z,2600.2144
2023-05-05T12:58:39.558Z,2615.0715
2023-05-05T12:59:47.675Z,2583.7144
2023-05-05T13:00:55.816Z,2577.5715
2023-05-05T13:02:04.160Z,2537.0000
2023-05-05T13:03:12.024Z,2524.7856
2023-05-05T13:04:20.042Z,2553.2856
2023-05-05T13:05:28.151Z,2559.0000
2023-05-05T13:06:36.248Z,2613.7856
2023-05-05T13:07:44.208Z,2598.7144
2023-05-05T13:08:52.305Z,2614.2144
2023-05-05T13:10:00.529Z,2665.3572
2023-05-05T13:11:08.405Z,2730.7144
2023-05-05T13:12:16.526Z,2825.2856
2023-05-05T13:13:24.449Z,2847.5715
2023-05-05T13:14:32.674Z,2818.2144